<?xml version="1.0" encoding="UTF-8" standalone="no" ?>
<gpx xmlns="http://www.topografix.com/GPX/1/1" xmlns:xsi="http://www.w3.org/2001/XMLSchema-instance" xsi:schemaLocation="http://www.topografix.com/GPX/1/1 http://www.topografix.com/GPX/1/1/gpx.xsd" version="1.1" creator="VisuGPX - https://www.visugpx.com">
  <metadata>
    <name>Fontainebleau, les Grands Béorlots</name>
    <desc><![CDATA[Promenade au relief facile - mais sol sableux - à la recherche des mares des Grands Béorlots. Celles-ci se trouvent au bout des deux "virgules" en aller-retour visibles sur le tracé.]]></desc>
  </metadata>
  <trk>
    <name><![CDATA[Fontainebleau, les Grands Béorlots_1]]></name>
    <trkseg>
      <trkpt lat="48.37015" lon="2.56147">
        <ele>121.7</ele>
        <time>2019-09-18T12:25:06Z</time>
      </trkpt>
      <trkpt lat="48.37002" lon="2.56145">
        <ele>121.7</ele>
        <time>2019-09-18T12:25:06Z</time>
      </trkpt>
      <trkpt lat="48.36993" lon="2.56137">
        <ele>122.9</ele>
        <time>2019-09-18T12:25:42Z</time>
      </trkpt>
      <trkpt lat="48.36982" lon="2.56122">
        <ele>123.1</ele>
        <time>2019-09-18T12:25:54Z</time>
      </trkpt>
      <trkpt lat="48.36969" lon="2.56103">
        <ele>123.3</ele>
        <time>2019-09-18T12:26:15Z</time>
      </trkpt>
      <trkpt lat="48.36949" lon="2.56098">
        <ele>123.9</ele>
        <time>2019-09-18T12:26:33Z</time>
      </trkpt>
      <trkpt lat="48.36923" lon="2.56095">
        <ele>124.9</ele>
        <time>2019-09-18T12:26:54Z</time>
      </trkpt>
      <trkpt lat="48.36908" lon="2.56074">
        <ele>125.9</ele>
        <time>2019-09-18T12:27:19Z</time>
      </trkpt>
      <trkpt lat="48.36892" lon="2.56057">
        <ele>125.8</ele>
        <time>2019-09-18T12:27:42Z</time>
      </trkpt>
      <trkpt lat="48.36878" lon="2.56042">
        <ele>125.8</ele>
        <time>2019-09-18T12:28:02Z</time>
      </trkpt>
      <trkpt lat="48.36865" lon="2.5603">
        <ele>125.7</ele>
        <time>2019-09-18T12:28:23Z</time>
      </trkpt>
      <trkpt lat="48.36856" lon="2.56009">
        <ele>125</ele>
        <time>2019-09-18T12:28:46Z</time>
      </trkpt>
      <trkpt lat="48.36857" lon="2.55984">
        <ele>125.2</ele>
        <time>2019-09-18T12:29:10Z</time>
      </trkpt>
      <trkpt lat="48.36855" lon="2.55956">
        <ele>125.1</ele>
        <time>2019-09-18T12:29:29Z</time>
      </trkpt>
      <trkpt lat="48.36854" lon="2.55927">
        <ele>124.8</ele>
        <time>2019-09-18T12:29:51Z</time>
      </trkpt>
      <trkpt lat="48.36856" lon="2.55899">
        <ele>124.2</ele>
        <time>2019-09-18T12:30:15Z</time>
      </trkpt>
      <trkpt lat="48.36861" lon="2.5587">
        <ele>124</ele>
        <time>2019-09-18T12:30:38Z</time>
      </trkpt>
      <trkpt lat="48.36865" lon="2.55841">
        <ele>123.7</ele>
        <time>2019-09-18T12:30:59Z</time>
      </trkpt>
      <trkpt lat="48.3688" lon="2.55816">
        <ele>121.26</ele>
        <time>2019-09-18T12:31:21Z</time>
      </trkpt>
      <trkpt lat="48.3688" lon="2.55816">
        <ele>121.26</ele>
        <time>2019-09-18T12:31:37Z</time>
      </trkpt>
      <trkpt lat="48.36887" lon="2.55802">
        <ele>122.9</ele>
        <time>2019-09-18T12:31:41Z</time>
      </trkpt>
      <trkpt lat="48.36896" lon="2.55779">
        <ele>120.3</ele>
        <time>2019-09-18T12:31:56Z</time>
      </trkpt>
      <trkpt lat="48.36903" lon="2.55767">
        <ele>117.9</ele>
        <time>2019-09-18T12:32:21Z</time>
      </trkpt>
      <trkpt lat="48.36904" lon="2.55762">
        <ele>125.11</ele>
        <time>2019-09-18T12:32:43Z</time>
      </trkpt>
      <trkpt lat="48.3691" lon="2.55746">
        <ele>129.43</ele>
        <time>2019-09-18T12:33:04Z</time>
      </trkpt>
      <trkpt lat="48.36928" lon="2.55709">
        <ele>127.99</ele>
        <time>2019-09-18T12:33:27Z</time>
      </trkpt>
      <trkpt lat="48.3694" lon="2.55672">
        <ele>124.15</ele>
        <time>2019-09-18T12:33:49Z</time>
      </trkpt>
      <trkpt lat="48.36958" lon="2.55645">
        <ele>120.3</ele>
        <time>2019-09-18T12:34:04Z</time>
      </trkpt>
      <trkpt lat="48.36971" lon="2.55608">
        <ele>116.46</ele>
        <time>2019-09-18T12:34:20Z</time>
      </trkpt>
      <trkpt lat="48.36975" lon="2.55587">
        <ele>116.94</ele>
        <time>2019-09-18T12:34:48Z</time>
      </trkpt>
      <trkpt lat="48.37003" lon="2.55582">
        <ele>117.42</ele>
        <time>2019-09-18T12:35:23Z</time>
      </trkpt>
      <trkpt lat="48.37016" lon="2.5555">
        <ele>117.42</ele>
        <time>2019-09-18T12:35:52Z</time>
      </trkpt>
      <trkpt lat="48.37027" lon="2.55525">
        <ele>114.53</ele>
        <time>2019-09-18T12:36:21Z</time>
      </trkpt>
      <trkpt lat="48.37037" lon="2.55493">
        <ele>112.13</ele>
        <time>2019-09-18T12:36:46Z</time>
      </trkpt>
      <trkpt lat="48.37053" lon="2.55463">
        <ele>110.21</ele>
        <time>2019-09-18T12:37:06Z</time>
      </trkpt>
      <trkpt lat="48.37069" lon="2.55432">
        <ele>110.21</ele>
        <time>2019-09-18T12:37:27Z</time>
      </trkpt>
      <trkpt lat="48.37077" lon="2.554">
        <ele>108.77</ele>
        <time>2019-09-18T12:37:46Z</time>
      </trkpt>
      <trkpt lat="48.3707" lon="2.55378">
        <ele>109.25</ele>
        <time>2019-09-18T12:38:08Z</time>
      </trkpt>
      <trkpt lat="48.37058" lon="2.55357">
        <ele>119.82</ele>
        <time>2019-09-18T12:38:32Z</time>
      </trkpt>
      <trkpt lat="48.37056" lon="2.55351">
        <ele>121.74</ele>
        <time>2019-09-18T12:38:57Z</time>
      </trkpt>
      <trkpt lat="48.37047" lon="2.55337">
        <ele>121.26</ele>
        <time>2019-09-18T12:39:21Z</time>
      </trkpt>
      <trkpt lat="48.37028" lon="2.55318">
        <ele>118.86</ele>
        <time>2019-09-18T12:39:42Z</time>
      </trkpt>
      <trkpt lat="48.37015" lon="2.55295">
        <ele>116.46</ele>
        <time>2019-09-18T12:40:02Z</time>
      </trkpt>
      <trkpt lat="48.36999" lon="2.55274">
        <ele>117.9</ele>
        <time>2019-09-18T12:40:24Z</time>
      </trkpt>
      <trkpt lat="48.36984" lon="2.55255">
        <ele>115.5</ele>
        <time>2019-09-18T12:40:46Z</time>
      </trkpt>
      <trkpt lat="48.36976" lon="2.5523">
        <ele>117.42</ele>
        <time>2019-09-18T12:41:08Z</time>
      </trkpt>
      <trkpt lat="48.36972" lon="2.55224">
        <ele>120.78</ele>
        <time>2019-09-18T12:41:33Z</time>
      </trkpt>
      <trkpt lat="48.36967" lon="2.55225">
        <ele>119.82</ele>
        <time>2019-09-18T12:41:56Z</time>
      </trkpt>
      <trkpt lat="48.36962" lon="2.55234">
        <ele>116.46</ele>
        <time>2019-09-18T12:42:18Z</time>
      </trkpt>
      <trkpt lat="48.36962" lon="2.55233">
        <ele>117.9</ele>
        <time>2019-09-18T12:42:39Z</time>
      </trkpt>
      <trkpt lat="48.36963" lon="2.55234">
        <ele>121.26</ele>
        <time>2019-09-18T12:43:03Z</time>
      </trkpt>
      <trkpt lat="48.36965" lon="2.55234">
        <ele>120.78</ele>
        <time>2019-09-18T12:43:29Z</time>
      </trkpt>
      <trkpt lat="48.36954" lon="2.55208">
        <ele>122.22</ele>
        <time>2019-09-18T12:43:54Z</time>
      </trkpt>
      <trkpt lat="48.36948" lon="2.55193">
        <ele>123.67</ele>
        <time>2019-09-18T12:44:16Z</time>
      </trkpt>
      <trkpt lat="48.36944" lon="2.55183">
        <ele>127.03</ele>
        <time>2019-09-18T12:44:40Z</time>
      </trkpt>
      <trkpt lat="48.36934" lon="2.55172">
        <ele>127.99</ele>
        <time>2019-09-18T12:45:04Z</time>
      </trkpt>
      <trkpt lat="48.36911" lon="2.55139">
        <ele>125.11</ele>
        <time>2019-09-18T12:45:26Z</time>
      </trkpt>
      <trkpt lat="48.36896" lon="2.5512">
        <ele>118.38</ele>
        <time>2019-09-18T12:45:49Z</time>
      </trkpt>
      <trkpt lat="48.36879" lon="2.55101">
        <ele>115.98</ele>
        <time>2019-09-18T12:46:08Z</time>
      </trkpt>
      <trkpt lat="48.36867" lon="2.55083">
        <ele>114.05</ele>
        <time>2019-09-18T12:46:35Z</time>
      </trkpt>
      <trkpt lat="48.36852" lon="2.55059">
        <ele>115.98</ele>
        <time>2019-09-18T12:46:52Z</time>
      </trkpt>
      <trkpt lat="48.36843" lon="2.55042">
        <ele>113.57</ele>
        <time>2019-09-18T12:47:18Z</time>
      </trkpt>
      <trkpt lat="48.36831" lon="2.5502">
        <ele>112.61</ele>
        <time>2019-09-18T12:47:41Z</time>
      </trkpt>
      <trkpt lat="48.36813" lon="2.54998">
        <ele>116.94</ele>
        <time>2019-09-18T12:48:08Z</time>
      </trkpt>
      <trkpt lat="48.36801" lon="2.54975">
        <ele>117.42</ele>
        <time>2019-09-18T12:48:33Z</time>
      </trkpt>
      <trkpt lat="48.36783" lon="2.54956">
        <ele>113.57</ele>
        <time>2019-09-18T12:48:54Z</time>
      </trkpt>
      <trkpt lat="48.36768" lon="2.54932">
        <ele>109.73</ele>
        <time>2019-09-18T12:49:18Z</time>
      </trkpt>
      <trkpt lat="48.36755" lon="2.54911">
        <ele>110.21</ele>
        <time>2019-09-18T12:49:42Z</time>
      </trkpt>
      <trkpt lat="48.36744" lon="2.54892">
        <ele>109.25</ele>
        <time>2019-09-18T12:50:05Z</time>
      </trkpt>
      <trkpt lat="48.36727" lon="2.54865">
        <ele>109.73</ele>
        <time>2019-09-18T12:50:28Z</time>
      </trkpt>
      <trkpt lat="48.36708" lon="2.54841">
        <ele>110.69</ele>
        <time>2019-09-18T12:50:52Z</time>
      </trkpt>
      <trkpt lat="48.36691" lon="2.54815">
        <ele>106.84</ele>
        <time>2019-09-18T12:51:15Z</time>
      </trkpt>
      <trkpt lat="48.36679" lon="2.54796">
        <ele>108.77</ele>
        <time>2019-09-18T12:51:34Z</time>
      </trkpt>
      <trkpt lat="48.36663" lon="2.54778">
        <ele>107.81</ele>
        <time>2019-09-18T12:51:58Z</time>
      </trkpt>
      <trkpt lat="48.36646" lon="2.54753">
        <ele>111.17</ele>
        <time>2019-09-18T12:52:21Z</time>
      </trkpt>
      <trkpt lat="48.36636" lon="2.54731">
        <ele>114.53</ele>
        <time>2019-09-18T12:52:44Z</time>
      </trkpt>
      <trkpt lat="48.36621" lon="2.54709">
        <ele>115.98</ele>
        <time>2019-09-18T12:53:06Z</time>
      </trkpt>
      <trkpt lat="48.3662" lon="2.54704">
        <ele>125.59</ele>
        <time>2019-09-18T12:53:29Z</time>
      </trkpt>
      <trkpt lat="48.36624" lon="2.54704">
        <ele>118.38</ele>
        <time>2019-09-18T12:53:55Z</time>
      </trkpt>
      <trkpt lat="48.36623" lon="2.54704">
        <ele>118.38</ele>
        <time>2019-09-18T12:54:24Z</time>
      </trkpt>
      <trkpt lat="48.36598" lon="2.54706">
        <ele>118.38</ele>
        <time>2019-09-18T12:54:54Z</time>
      </trkpt>
      <trkpt lat="48.36578" lon="2.54721">
        <ele>116.46</ele>
        <time>2019-09-18T12:55:19Z</time>
      </trkpt>
      <trkpt lat="48.36556" lon="2.54735">
        <ele>121.74</ele>
        <time>2019-09-18T12:55:41Z</time>
      </trkpt>
      <trkpt lat="48.36549" lon="2.54753">
        <ele>120.3</ele>
        <time>2019-09-18T12:56:07Z</time>
      </trkpt>
      <trkpt lat="48.36542" lon="2.5478">
        <ele>120.3</ele>
        <time>2019-09-18T12:56:31Z</time>
      </trkpt>
      <trkpt lat="48.36533" lon="2.54814">
        <ele>120.3</ele>
        <time>2019-09-18T12:56:57Z</time>
      </trkpt>
      <trkpt lat="48.36514" lon="2.54826">
        <ele>117.42</ele>
        <time>2019-09-18T12:57:21Z</time>
      </trkpt>
      <trkpt lat="48.36491" lon="2.5484">
        <ele>115.5</ele>
        <time>2019-09-18T12:57:43Z</time>
      </trkpt>
      <trkpt lat="48.36473" lon="2.5486">
        <ele>114.53</ele>
        <time>2019-09-18T12:58:06Z</time>
      </trkpt>
      <trkpt lat="48.36458" lon="2.5488">
        <ele>110.69</ele>
        <time>2019-09-18T12:58:32Z</time>
      </trkpt>
      <trkpt lat="48.36441" lon="2.54904">
        <ele>106.84</ele>
        <time>2019-09-18T12:58:56Z</time>
      </trkpt>
      <trkpt lat="48.36433" lon="2.54919">
        <ele>102.52</ele>
        <time>2019-09-18T12:59:18Z</time>
      </trkpt>
      <trkpt lat="48.36428" lon="2.54954">
        <ele>99.63</ele>
        <time>2019-09-18T12:59:40Z</time>
      </trkpt>
      <trkpt lat="48.36416" lon="2.54999">
        <ele>104.44</ele>
        <time>2019-09-18T13:00:03Z</time>
      </trkpt>
      <trkpt lat="48.36398" lon="2.55031">
        <ele>100.6</ele>
        <time>2019-09-18T13:00:25Z</time>
      </trkpt>
      <trkpt lat="48.36379" lon="2.55052">
        <ele>101.56</ele>
        <time>2019-09-18T13:00:48Z</time>
      </trkpt>
      <trkpt lat="48.36363" lon="2.55081">
        <ele>103</ele>
        <time>2019-09-18T13:01:12Z</time>
      </trkpt>
      <trkpt lat="48.36366" lon="2.55073">
        <ele>103</ele>
        <time>2019-09-18T13:01:36Z</time>
      </trkpt>
      <trkpt lat="48.36364" lon="2.55067">
        <ele>104.92</ele>
        <time>2019-09-18T13:01:58Z</time>
      </trkpt>
      <trkpt lat="48.36363" lon="2.55064">
        <ele>108.77</ele>
        <time>2019-09-18T13:02:23Z</time>
      </trkpt>
      <trkpt lat="48.36362" lon="2.55068">
        <ele>112.13</ele>
        <time>2019-09-18T13:02:45Z</time>
      </trkpt>
      <trkpt lat="48.36366" lon="2.55074">
        <ele>110.21</ele>
        <time>2019-09-18T13:03:09Z</time>
      </trkpt>
      <trkpt lat="48.36367" lon="2.55073">
        <ele>106.84</ele>
        <time>2019-09-18T13:03:32Z</time>
      </trkpt>
      <trkpt lat="48.36366" lon="2.55068">
        <ele>103.48</ele>
        <time>2019-09-18T13:03:54Z</time>
      </trkpt>
      <trkpt lat="48.36361" lon="2.55075">
        <ele>104.44</ele>
        <time>2019-09-18T13:04:16Z</time>
      </trkpt>
      <trkpt lat="48.36353" lon="2.55051">
        <ele>99.15</ele>
        <time>2019-09-18T13:04:40Z</time>
      </trkpt>
      <trkpt lat="48.36349" lon="2.55021">
        <ele>97.71</ele>
        <time>2019-09-18T13:05:07Z</time>
      </trkpt>
      <trkpt lat="48.36341" lon="2.54994">
        <ele>94.35</ele>
        <time>2019-09-18T13:05:28Z</time>
      </trkpt>
      <trkpt lat="48.36328" lon="2.54968">
        <ele>91.46</ele>
        <time>2019-09-18T13:05:52Z</time>
      </trkpt>
      <trkpt lat="48.36331" lon="2.54933">
        <ele>88.58</ele>
        <time>2019-09-18T13:06:14Z</time>
      </trkpt>
      <trkpt lat="48.36335" lon="2.54904">
        <ele>85.21</ele>
        <time>2019-09-18T13:06:40Z</time>
      </trkpt>
      <trkpt lat="48.36339" lon="2.54854">
        <ele>96.27</ele>
        <time>2019-09-18T13:07:05Z</time>
      </trkpt>
      <trkpt lat="48.36346" lon="2.5482">
        <ele>102.04</ele>
        <time>2019-09-18T13:07:30Z</time>
      </trkpt>
      <trkpt lat="48.36346" lon="2.54795">
        <ele>97.71</ele>
        <time>2019-09-18T13:07:52Z</time>
      </trkpt>
      <trkpt lat="48.36336" lon="2.54755">
        <ele>98.67</ele>
        <time>2019-09-18T13:07:59Z</time>
      </trkpt>
      <trkpt lat="48.36321" lon="2.54718">
        <ele>100.11</ele>
        <time>2019-09-18T13:08:18Z</time>
      </trkpt>
      <trkpt lat="48.36309" lon="2.5469">
        <ele>99.63</ele>
        <time>2019-09-18T13:08:42Z</time>
      </trkpt>
      <trkpt lat="48.36302" lon="2.54662">
        <ele>95.79</ele>
        <time>2019-09-18T13:09:06Z</time>
      </trkpt>
      <trkpt lat="48.36294" lon="2.54625">
        <ele>97.23</ele>
        <time>2019-09-18T13:09:30Z</time>
      </trkpt>
      <trkpt lat="48.36284" lon="2.54584">
        <ele>102.52</ele>
        <time>2019-09-18T13:09:52Z</time>
      </trkpt>
      <trkpt lat="48.36278" lon="2.54551">
        <ele>96.27</ele>
        <time>2019-09-18T13:10:16Z</time>
      </trkpt>
      <trkpt lat="48.36271" lon="2.54525">
        <ele>92.9</ele>
        <time>2019-09-18T13:10:38Z</time>
      </trkpt>
      <trkpt lat="48.36262" lon="2.54493">
        <ele>91.94</ele>
        <time>2019-09-18T13:11:13Z</time>
      </trkpt>
      <trkpt lat="48.36251" lon="2.54464">
        <ele>87.14</ele>
        <time>2019-09-18T13:11:44Z</time>
      </trkpt>
      <trkpt lat="48.36251" lon="2.5441">
        <ele>98.19</ele>
        <time>2019-09-18T13:12:09Z</time>
      </trkpt>
      <trkpt lat="48.36254" lon="2.54376">
        <ele>98.67</ele>
        <time>2019-09-18T13:12:39Z</time>
      </trkpt>
      <trkpt lat="48.36257" lon="2.54331">
        <ele>103.48</ele>
        <time>2019-09-18T13:13:10Z</time>
      </trkpt>
      <trkpt lat="48.36253" lon="2.54296">
        <ele>103</ele>
        <time>2019-09-18T13:13:31Z</time>
      </trkpt>
      <trkpt lat="48.36252" lon="2.54269">
        <ele>104.92</ele>
        <time>2019-09-18T13:13:52Z</time>
      </trkpt>
      <trkpt lat="48.36249" lon="2.54235">
        <ele>104.92</ele>
        <time>2019-09-18T13:14:14Z</time>
      </trkpt>
      <trkpt lat="48.36252" lon="2.54194">
        <ele>103.48</ele>
        <time>2019-09-18T13:14:35Z</time>
      </trkpt>
      <trkpt lat="48.36255" lon="2.54158">
        <ele>105.88</ele>
        <time>2019-09-18T13:14:58Z</time>
      </trkpt>
      <trkpt lat="48.36259" lon="2.5413">
        <ele>113.09</ele>
        <time>2019-09-18T13:15:23Z</time>
      </trkpt>
      <trkpt lat="48.3626" lon="2.54122">
        <ele>115.01</ele>
        <time>2019-09-18T13:15:45Z</time>
      </trkpt>
      <trkpt lat="48.36263" lon="2.54101">
        <ele>116.46</ele>
        <time>2019-09-18T13:16:08Z</time>
      </trkpt>
      <trkpt lat="48.36267" lon="2.54062">
        <ele>116.94</ele>
        <time>2019-09-18T13:16:32Z</time>
      </trkpt>
      <trkpt lat="48.36272" lon="2.54027">
        <ele>115.5</ele>
        <time>2019-09-18T13:16:50Z</time>
      </trkpt>
      <trkpt lat="48.36285" lon="2.53998">
        <ele>111.65</ele>
        <time>2019-09-18T13:17:10Z</time>
      </trkpt>
      <trkpt lat="48.36298" lon="2.53979">
        <ele>105.88</ele>
        <time>2019-09-18T13:17:36Z</time>
      </trkpt>
      <trkpt lat="48.36313" lon="2.53954">
        <ele>101.56</ele>
        <time>2019-09-18T13:17:59Z</time>
      </trkpt>
      <trkpt lat="48.36318" lon="2.53937">
        <ele>100.11</ele>
        <time>2019-09-18T13:18:22Z</time>
      </trkpt>
      <trkpt lat="48.36318" lon="2.53937">
        <ele>100.6</ele>
        <time>2019-09-18T13:18:44Z</time>
      </trkpt>
      <trkpt lat="48.36315" lon="2.5393">
        <ele>104.92</ele>
        <time>2019-09-18T13:19:09Z</time>
      </trkpt>
      <trkpt lat="48.3631" lon="2.53923">
        <ele>105.4</ele>
        <time>2019-09-18T13:19:32Z</time>
      </trkpt>
      <trkpt lat="48.3631" lon="2.53923">
        <ele>105.88</ele>
        <time>2019-09-18T13:19:56Z</time>
      </trkpt>
      <trkpt lat="48.36308" lon="2.5392">
        <ele>107.81</ele>
        <time>2019-09-18T13:20:18Z</time>
      </trkpt>
      <trkpt lat="48.36317" lon="2.53936">
        <ele>103.96</ele>
        <time>2019-09-18T13:20:40Z</time>
      </trkpt>
      <trkpt lat="48.3633" lon="2.53941">
        <ele>102.52</ele>
        <time>2019-09-18T13:21:05Z</time>
      </trkpt>
      <trkpt lat="48.36348" lon="2.53934">
        <ele>102.52</ele>
        <time>2019-09-18T13:21:27Z</time>
      </trkpt>
      <trkpt lat="48.36362" lon="2.53918">
        <ele>100.11</ele>
        <time>2019-09-18T13:21:52Z</time>
      </trkpt>
      <trkpt lat="48.36387" lon="2.5392">
        <ele>98.19</ele>
        <time>2019-09-18T13:22:16Z</time>
      </trkpt>
      <trkpt lat="48.36405" lon="2.53947">
        <ele>100.6</ele>
        <time>2019-09-18T13:22:41Z</time>
      </trkpt>
      <trkpt lat="48.36407" lon="2.53983">
        <ele>101.56</ele>
        <time>2019-09-18T13:23:02Z</time>
      </trkpt>
      <trkpt lat="48.36409" lon="2.54016">
        <ele>97.23</ele>
        <time>2019-09-18T13:23:26Z</time>
      </trkpt>
      <trkpt lat="48.36412" lon="2.5404">
        <ele>88.58</ele>
        <time>2019-09-18T13:23:49Z</time>
      </trkpt>
      <trkpt lat="48.36416" lon="2.5407">
        <ele>88.58</ele>
        <time>2019-09-18T13:24:14Z</time>
      </trkpt>
      <trkpt lat="48.3642" lon="2.54098">
        <ele>88.58</ele>
        <time>2019-09-18T13:24:38Z</time>
      </trkpt>
      <trkpt lat="48.36429" lon="2.54139">
        <ele>100.11</ele>
        <time>2019-09-18T13:25:01Z</time>
      </trkpt>
      <trkpt lat="48.36435" lon="2.54169">
        <ele>99.15</ele>
        <time>2019-09-18T13:25:23Z</time>
      </trkpt>
      <trkpt lat="48.36442" lon="2.54198">
        <ele>98.19</ele>
        <time>2019-09-18T13:25:45Z</time>
      </trkpt>
      <trkpt lat="48.3646" lon="2.54215">
        <ele>98.19</ele>
        <time>2019-09-18T13:26:10Z</time>
      </trkpt>
      <trkpt lat="48.36479" lon="2.54215">
        <ele>100.11</ele>
        <time>2019-09-18T13:26:32Z</time>
      </trkpt>
      <trkpt lat="48.36499" lon="2.54238">
        <ele>96.27</ele>
        <time>2019-09-18T13:26:56Z</time>
      </trkpt>
      <trkpt lat="48.36502" lon="2.54268">
        <ele>91.46</ele>
        <time>2019-09-18T13:27:20Z</time>
      </trkpt>
      <trkpt lat="48.36504" lon="2.54296">
        <ele>88.1</ele>
        <time>2019-09-18T13:27:44Z</time>
      </trkpt>
      <trkpt lat="48.36508" lon="2.54336">
        <ele>92.42</ele>
        <time>2019-09-18T13:28:09Z</time>
      </trkpt>
      <trkpt lat="48.3651" lon="2.54362">
        <ele>87.62</ele>
        <time>2019-09-18T13:28:30Z</time>
      </trkpt>
      <trkpt lat="48.36513" lon="2.54386">
        <ele>84.25</ele>
        <time>2019-09-18T13:28:57Z</time>
      </trkpt>
      <trkpt lat="48.36517" lon="2.5442">
        <ele>81.85</ele>
        <time>2019-09-18T13:29:20Z</time>
      </trkpt>
      <trkpt lat="48.36519" lon="2.54447">
        <ele>79.45</ele>
        <time>2019-09-18T13:29:43Z</time>
      </trkpt>
      <trkpt lat="48.36519" lon="2.54512">
        <ele>91.94</ele>
        <time>2019-09-18T13:30:04Z</time>
      </trkpt>
      <trkpt lat="48.36521" lon="2.5454">
        <ele>91.46</ele>
        <time>2019-09-18T13:30:26Z</time>
      </trkpt>
      <trkpt lat="48.36525" lon="2.54559">
        <ele>86.18</ele>
        <time>2019-09-18T13:30:48Z</time>
      </trkpt>
      <trkpt lat="48.36524" lon="2.54594">
        <ele>83.77</ele>
        <time>2019-09-18T13:31:12Z</time>
      </trkpt>
      <trkpt lat="48.36525" lon="2.54632">
        <ele>90.02</ele>
        <time>2019-09-18T13:31:35Z</time>
      </trkpt>
      <trkpt lat="48.36531" lon="2.54649">
        <ele>93.87</ele>
        <time>2019-09-18T13:31:56Z</time>
      </trkpt>
      <trkpt lat="48.36541" lon="2.54677">
        <ele>103</ele>
        <time>2019-09-18T13:32:20Z</time>
      </trkpt>
      <trkpt lat="48.36546" lon="2.54694">
        <ele>101.56</ele>
        <time>2019-09-18T13:32:41Z</time>
      </trkpt>
      <trkpt lat="48.36555" lon="2.54709">
        <ele>102.52</ele>
        <time>2019-09-18T13:33:05Z</time>
      </trkpt>
      <trkpt lat="48.36574" lon="2.54713">
        <ele>105.4</ele>
        <time>2019-09-18T13:33:26Z</time>
      </trkpt>
      <trkpt lat="48.36588" lon="2.54705">
        <ele>109.73</ele>
        <time>2019-09-18T13:33:48Z</time>
      </trkpt>
      <trkpt lat="48.36608" lon="2.54694">
        <ele>109.25</ele>
        <time>2019-09-18T13:34:10Z</time>
      </trkpt>
      <trkpt lat="48.36629" lon="2.54685">
        <ele>110.69</ele>
        <time>2019-09-18T13:34:33Z</time>
      </trkpt>
      <trkpt lat="48.36649" lon="2.54672">
        <ele>109.25</ele>
        <time>2019-09-18T13:34:58Z</time>
      </trkpt>
      <trkpt lat="48.36674" lon="2.54681">
        <ele>106.36</ele>
        <time>2019-09-18T13:35:26Z</time>
      </trkpt>
      <trkpt lat="48.36691" lon="2.54666">
        <ele>105.88</ele>
        <time>2019-09-18T13:35:55Z</time>
      </trkpt>
      <trkpt lat="48.36717" lon="2.54666">
        <ele>106.36</ele>
        <time>2019-09-18T13:36:20Z</time>
      </trkpt>
      <trkpt lat="48.36735" lon="2.54664">
        <ele>107.32</ele>
        <time>2019-09-18T13:36:49Z</time>
      </trkpt>
      <trkpt lat="48.36753" lon="2.54657">
        <ele>104.92</ele>
        <time>2019-09-18T13:37:14Z</time>
      </trkpt>
      <trkpt lat="48.36774" lon="2.54664">
        <ele>105.4</ele>
        <time>2019-09-18T13:37:45Z</time>
      </trkpt>
      <trkpt lat="48.36795" lon="2.54666">
        <ele>103.96</ele>
        <time>2019-09-18T13:38:17Z</time>
      </trkpt>
      <trkpt lat="48.36819" lon="2.54648">
        <ele>103</ele>
        <time>2019-09-18T13:38:46Z</time>
      </trkpt>
      <trkpt lat="48.36841" lon="2.54629">
        <ele>106.36</ele>
        <time>2019-09-18T13:39:17Z</time>
      </trkpt>
      <trkpt lat="48.36861" lon="2.54621">
        <ele>109.73</ele>
        <time>2019-09-18T13:39:48Z</time>
      </trkpt>
      <trkpt lat="48.3687" lon="2.54604">
        <ele>105.4</ele>
        <time>2019-09-18T13:40:17Z</time>
      </trkpt>
      <trkpt lat="48.36875" lon="2.54569">
        <ele>100.6</ele>
        <time>2019-09-18T13:40:45Z</time>
      </trkpt>
      <trkpt lat="48.36885" lon="2.54537">
        <ele>101.56</ele>
        <time>2019-09-18T13:41:09Z</time>
      </trkpt>
      <trkpt lat="48.36875" lon="2.54515">
        <ele>101.56</ele>
        <time>2019-09-18T13:41:29Z</time>
      </trkpt>
      <trkpt lat="48.36864" lon="2.5451">
        <ele>102.52</ele>
        <time>2019-09-18T13:41:51Z</time>
      </trkpt>
      <trkpt lat="48.36852" lon="2.54502">
        <ele>102.04</ele>
        <time>2019-09-18T13:42:11Z</time>
      </trkpt>
      <trkpt lat="48.36843" lon="2.54502">
        <ele>100.11</ele>
        <time>2019-09-18T13:42:34Z</time>
      </trkpt>
      <trkpt lat="48.3684" lon="2.54508">
        <ele>103</ele>
        <time>2019-09-18T13:42:54Z</time>
      </trkpt>
      <trkpt lat="48.36844" lon="2.54507">
        <ele>102.04</ele>
        <time>2019-09-18T13:43:19Z</time>
      </trkpt>
      <trkpt lat="48.36842" lon="2.54519">
        <ele>104.92</ele>
        <time>2019-09-18T13:43:42Z</time>
      </trkpt>
      <trkpt lat="48.3684" lon="2.54511">
        <ele>108.29</ele>
        <time>2019-09-18T13:44:02Z</time>
      </trkpt>
      <trkpt lat="48.36839" lon="2.54505">
        <ele>107.81</ele>
        <time>2019-09-18T13:44:28Z</time>
      </trkpt>
      <trkpt lat="48.36839" lon="2.5451">
        <ele>110.21</ele>
        <time>2019-09-18T13:44:48Z</time>
      </trkpt>
      <trkpt lat="48.3684" lon="2.54508">
        <ele>110.69</ele>
        <time>2019-09-18T13:45:07Z</time>
      </trkpt>
      <trkpt lat="48.36843" lon="2.54511">
        <ele>110.69</ele>
        <time>2019-09-18T13:45:28Z</time>
      </trkpt>
      <trkpt lat="48.36845" lon="2.5451">
        <ele>112.61</ele>
        <time>2019-09-18T13:45:43Z</time>
      </trkpt>
      <trkpt lat="48.36843" lon="2.54515">
        <ele>113.57</ele>
        <time>2019-09-18T13:46:00Z</time>
      </trkpt>
      <trkpt lat="48.36844" lon="2.54514">
        <ele>119.34</ele>
        <time>2019-09-18T13:46:26Z</time>
      </trkpt>
      <trkpt lat="48.36848" lon="2.54507">
        <ele>117.9</ele>
        <time>2019-09-18T13:46:50Z</time>
      </trkpt>
      <trkpt lat="48.36849" lon="2.54502">
        <ele>114.53</ele>
        <time>2019-09-18T13:47:16Z</time>
      </trkpt>
      <trkpt lat="48.36854" lon="2.54499">
        <ele>113.57</ele>
        <time>2019-09-18T13:47:41Z</time>
      </trkpt>
      <trkpt lat="48.36869" lon="2.54509">
        <ele>112.61</ele>
        <time>2019-09-18T13:48:04Z</time>
      </trkpt>
      <trkpt lat="48.36879" lon="2.54517">
        <ele>109.25</ele>
        <time>2019-09-18T13:48:28Z</time>
      </trkpt>
      <trkpt lat="48.3688" lon="2.54501">
        <ele>105.88</ele>
        <time>2019-09-18T13:48:56Z</time>
      </trkpt>
      <trkpt lat="48.36883" lon="2.54482">
        <ele>104.92</ele>
        <time>2019-09-18T13:49:21Z</time>
      </trkpt>
      <trkpt lat="48.36884" lon="2.54455">
        <ele>105.4</ele>
        <time>2019-09-18T13:49:42Z</time>
      </trkpt>
      <trkpt lat="48.36887" lon="2.54436">
        <ele>103</ele>
        <time>2019-09-18T13:50:07Z</time>
      </trkpt>
      <trkpt lat="48.36889" lon="2.54399">
        <ele>99.15</ele>
        <time>2019-09-18T13:50:35Z</time>
      </trkpt>
      <trkpt lat="48.36889" lon="2.54375">
        <ele>90.98</ele>
        <time>2019-09-18T13:50:57Z</time>
      </trkpt>
      <trkpt lat="48.36884" lon="2.54344">
        <ele>96.75</ele>
        <time>2019-09-18T13:51:20Z</time>
      </trkpt>
      <trkpt lat="48.36885" lon="2.54324">
        <ele>88.58</ele>
        <time>2019-09-18T13:51:41Z</time>
      </trkpt>
      <trkpt lat="48.36882" lon="2.54301">
        <ele>82.81</ele>
        <time>2019-09-18T13:52:05Z</time>
      </trkpt>
      <trkpt lat="48.36872" lon="2.54272">
        <ele>86.18</ele>
        <time>2019-09-18T13:52:26Z</time>
      </trkpt>
      <trkpt lat="48.36867" lon="2.54252">
        <ele>80.89</ele>
        <time>2019-09-18T13:52:49Z</time>
      </trkpt>
      <trkpt lat="48.36878" lon="2.54233">
        <ele>109.25</ele>
        <time>2019-09-18T13:53:11Z</time>
      </trkpt>
      <trkpt lat="48.36888" lon="2.54238">
        <ele>113.09</ele>
        <time>2019-09-18T13:53:35Z</time>
      </trkpt>
      <trkpt lat="48.36914" lon="2.54247">
        <ele>112.13</ele>
        <time>2019-09-18T13:53:59Z</time>
      </trkpt>
      <trkpt lat="48.36931" lon="2.54257">
        <ele>108.29</ele>
        <time>2019-09-18T13:54:23Z</time>
      </trkpt>
      <trkpt lat="48.36957" lon="2.54267">
        <ele>106.36</ele>
        <time>2019-09-18T13:54:50Z</time>
      </trkpt>
      <trkpt lat="48.36973" lon="2.54278">
        <ele>103</ele>
        <time>2019-09-18T13:55:15Z</time>
      </trkpt>
      <trkpt lat="48.36991" lon="2.543">
        <ele>101.08</ele>
        <time>2019-09-18T13:55:39Z</time>
      </trkpt>
      <trkpt lat="48.37007" lon="2.54325">
        <ele>102.04</ele>
        <time>2019-09-18T13:56:02Z</time>
      </trkpt>
      <trkpt lat="48.3702" lon="2.54352">
        <ele>94.35</ele>
        <time>2019-09-18T13:56:29Z</time>
      </trkpt>
      <trkpt lat="48.37046" lon="2.5438">
        <ele>94.35</ele>
        <time>2019-09-18T13:56:52Z</time>
      </trkpt>
      <trkpt lat="48.37057" lon="2.54399">
        <ele>92.9</ele>
        <time>2019-09-18T13:57:13Z</time>
      </trkpt>
      <trkpt lat="48.37076" lon="2.54419">
        <ele>91.46</ele>
        <time>2019-09-18T13:57:37Z</time>
      </trkpt>
      <trkpt lat="48.37091" lon="2.54449">
        <ele>87.14</ele>
        <time>2019-09-18T13:57:56Z</time>
      </trkpt>
      <trkpt lat="48.37105" lon="2.54473">
        <ele>87.62</ele>
        <time>2019-09-18T13:58:18Z</time>
      </trkpt>
      <trkpt lat="48.37122" lon="2.54504">
        <ele>90.98</ele>
        <time>2019-09-18T13:58:42Z</time>
      </trkpt>
      <trkpt lat="48.37129" lon="2.54516">
        <ele>85.21</ele>
        <time>2019-09-18T13:59:05Z</time>
      </trkpt>
      <trkpt lat="48.37141" lon="2.54514">
        <ele>92.9</ele>
        <time>2019-09-18T13:59:27Z</time>
      </trkpt>
      <trkpt lat="48.37143" lon="2.54519">
        <ele>92.42</ele>
        <time>2019-09-18T13:59:52Z</time>
      </trkpt>
      <trkpt lat="48.37158" lon="2.54539">
        <ele>99.63</ele>
        <time>2019-09-18T14:00:12Z</time>
      </trkpt>
      <trkpt lat="48.3717" lon="2.54561">
        <ele>102.52</ele>
        <time>2019-09-18T14:00:33Z</time>
      </trkpt>
      <trkpt lat="48.37186" lon="2.54582">
        <ele>101.56</ele>
        <time>2019-09-18T14:00:58Z</time>
      </trkpt>
      <trkpt lat="48.372" lon="2.54605">
        <ele>98.19</ele>
        <time>2019-09-18T14:01:21Z</time>
      </trkpt>
      <trkpt lat="48.37209" lon="2.54623">
        <ele>92.9</ele>
        <time>2019-09-18T14:01:44Z</time>
      </trkpt>
      <trkpt lat="48.37232" lon="2.54647">
        <ele>94.83</ele>
        <time>2019-09-18T14:02:05Z</time>
      </trkpt>
      <trkpt lat="48.37242" lon="2.54663">
        <ele>90.02</ele>
        <time>2019-09-18T14:02:29Z</time>
      </trkpt>
      <trkpt lat="48.37252" lon="2.54686">
        <ele>84.73</ele>
        <time>2019-09-18T14:02:54Z</time>
      </trkpt>
      <trkpt lat="48.37268" lon="2.54709">
        <ele>87.14</ele>
        <time>2019-09-18T14:03:15Z</time>
      </trkpt>
      <trkpt lat="48.37269" lon="2.54738">
        <ele>83.77</ele>
        <time>2019-09-18T14:03:39Z</time>
      </trkpt>
      <trkpt lat="48.37257" lon="2.54761">
        <ele>92.9</ele>
        <time>2019-09-18T14:04:02Z</time>
      </trkpt>
      <trkpt lat="48.37249" lon="2.54773">
        <ele>95.79</ele>
        <time>2019-09-18T14:04:22Z</time>
      </trkpt>
      <trkpt lat="48.37239" lon="2.54791">
        <ele>97.23</ele>
        <time>2019-09-18T14:04:44Z</time>
      </trkpt>
      <trkpt lat="48.37226" lon="2.54809">
        <ele>100.11</ele>
        <time>2019-09-18T14:05:08Z</time>
      </trkpt>
      <trkpt lat="48.37214" lon="2.54828">
        <ele>101.56</ele>
        <time>2019-09-18T14:05:32Z</time>
      </trkpt>
      <trkpt lat="48.372" lon="2.54852">
        <ele>105.4</ele>
        <time>2019-09-18T14:05:56Z</time>
      </trkpt>
      <trkpt lat="48.37186" lon="2.54872">
        <ele>104.92</ele>
        <time>2019-09-18T14:06:20Z</time>
      </trkpt>
      <trkpt lat="48.37174" lon="2.54892">
        <ele>102.52</ele>
        <time>2019-09-18T14:06:44Z</time>
      </trkpt>
      <trkpt lat="48.3716" lon="2.54914">
        <ele>99.15</ele>
        <time>2019-09-18T14:07:08Z</time>
      </trkpt>
      <trkpt lat="48.37145" lon="2.54932">
        <ele>99.15</ele>
        <time>2019-09-18T14:07:30Z</time>
      </trkpt>
      <trkpt lat="48.37137" lon="2.54947">
        <ele>89.54</ele>
        <time>2019-09-18T14:07:45Z</time>
      </trkpt>
      <trkpt lat="48.37122" lon="2.54964">
        <ele>82.81</ele>
        <time>2019-09-18T14:08:05Z</time>
      </trkpt>
      <trkpt lat="48.37102" lon="2.55009">
        <ele>96.75</ele>
        <time>2019-09-18T14:08:27Z</time>
      </trkpt>
      <trkpt lat="48.37086" lon="2.55031">
        <ele>101.56</ele>
        <time>2019-09-18T14:08:53Z</time>
      </trkpt>
      <trkpt lat="48.37073" lon="2.55051">
        <ele>101.56</ele>
        <time>2019-09-18T14:09:17Z</time>
      </trkpt>
      <trkpt lat="48.37057" lon="2.55073">
        <ele>99.15</ele>
        <time>2019-09-18T14:09:39Z</time>
      </trkpt>
      <trkpt lat="48.37041" lon="2.55102">
        <ele>101.08</ele>
        <time>2019-09-18T14:10:03Z</time>
      </trkpt>
      <trkpt lat="48.37027" lon="2.5512">
        <ele>98.67</ele>
        <time>2019-09-18T14:10:28Z</time>
      </trkpt>
      <trkpt lat="48.37015" lon="2.55151">
        <ele>100.11</ele>
        <time>2019-09-18T14:10:50Z</time>
      </trkpt>
      <trkpt lat="48.36998" lon="2.55166">
        <ele>100.6</ele>
        <time>2019-09-18T14:11:16Z</time>
      </trkpt>
      <trkpt lat="48.36988" lon="2.55185">
        <ele>98.67</ele>
        <time>2019-09-18T14:11:38Z</time>
      </trkpt>
      <trkpt lat="48.36974" lon="2.55205">
        <ele>95.79</ele>
        <time>2019-09-18T14:11:58Z</time>
      </trkpt>
      <trkpt lat="48.36979" lon="2.55238">
        <ele>98.67</ele>
        <time>2019-09-18T14:12:23Z</time>
      </trkpt>
      <trkpt lat="48.36998" lon="2.55262">
        <ele>102.52</ele>
        <time>2019-09-18T14:12:46Z</time>
      </trkpt>
      <trkpt lat="48.37013" lon="2.55284">
        <ele>101.56</ele>
        <time>2019-09-18T14:13:12Z</time>
      </trkpt>
      <trkpt lat="48.37032" lon="2.55314">
        <ele>102.04</ele>
        <time>2019-09-18T14:13:36Z</time>
      </trkpt>
      <trkpt lat="48.37049" lon="2.55341">
        <ele>100.6</ele>
        <time>2019-09-18T14:14:01Z</time>
      </trkpt>
      <trkpt lat="48.3707" lon="2.55369">
        <ele>103.96</ele>
        <time>2019-09-18T14:14:23Z</time>
      </trkpt>
      <trkpt lat="48.37075" lon="2.55402">
        <ele>105.88</ele>
        <time>2019-09-18T14:14:46Z</time>
      </trkpt>
      <trkpt lat="48.37072" lon="2.55422">
        <ele>117.9</ele>
        <time>2019-09-18T14:15:08Z</time>
      </trkpt>
      <trkpt lat="48.37065" lon="2.55443">
        <ele>116.46</ele>
        <time>2019-09-18T14:15:32Z</time>
      </trkpt>
      <trkpt lat="48.37056" lon="2.55465">
        <ele>112.61</ele>
        <time>2019-09-18T14:15:58Z</time>
      </trkpt>
      <trkpt lat="48.37045" lon="2.55491">
        <ele>107.81</ele>
        <time>2019-09-18T14:16:22Z</time>
      </trkpt>
      <trkpt lat="48.37031" lon="2.55517">
        <ele>103.48</ele>
        <time>2019-09-18T14:16:42Z</time>
      </trkpt>
      <trkpt lat="48.37016" lon="2.55561">
        <ele>107.81</ele>
        <time>2019-09-18T14:17:01Z</time>
      </trkpt>
      <trkpt lat="48.37004" lon="2.55585">
        <ele>109.25</ele>
        <time>2019-09-18T14:17:23Z</time>
      </trkpt>
      <trkpt lat="48.36982" lon="2.55613">
        <ele>110.69</ele>
        <time>2019-09-18T14:17:45Z</time>
      </trkpt>
      <trkpt lat="48.36969" lon="2.55626">
        <ele>110.21</ele>
        <time>2019-09-18T14:18:08Z</time>
      </trkpt>
      <trkpt lat="48.36959" lon="2.55646">
        <ele>114.53</ele>
        <time>2019-09-18T14:18:28Z</time>
      </trkpt>
      <trkpt lat="48.36953" lon="2.55658">
        <ele>112.61</ele>
        <time>2019-09-18T14:18:48Z</time>
      </trkpt>
      <trkpt lat="48.36941" lon="2.55688">
        <ele>110.69</ele>
        <time>2019-09-18T14:19:09Z</time>
      </trkpt>
      <trkpt lat="48.36933" lon="2.55713">
        <ele>108.29</ele>
        <time>2019-09-18T14:19:32Z</time>
      </trkpt>
      <trkpt lat="48.36919" lon="2.55742">
        <ele>108.29</ele>
        <time>2019-09-18T14:19:57Z</time>
      </trkpt>
      <trkpt lat="48.36911" lon="2.55766">
        <ele>109.25</ele>
        <time>2019-09-18T14:20:28Z</time>
      </trkpt>
      <trkpt lat="48.36896" lon="2.55801">
        <ele>111.17</ele>
        <time>2019-09-18T14:20:57Z</time>
      </trkpt>
      <trkpt lat="48.36881" lon="2.55831">
        <ele>112.61</ele>
        <time>2019-09-18T14:21:31Z</time>
      </trkpt>
      <trkpt lat="48.36873" lon="2.55852">
        <ele>112.61</ele>
        <time>2019-09-18T14:21:57Z</time>
      </trkpt>
      <trkpt lat="48.36863" lon="2.55888">
        <ele>114.53</ele>
        <time>2019-09-18T14:21:59Z</time>
      </trkpt>
      <trkpt lat="48.36861" lon="2.55918">
        <ele>117.42</ele>
        <time>2019-09-18T14:21:59Z</time>
      </trkpt>
      <trkpt lat="48.36865" lon="2.55951">
        <ele>115.5</ele>
      </trkpt>
      <trkpt lat="48.36864" lon="2.55988">
        <ele>113.57</ele>
      </trkpt>
      <trkpt lat="48.36869" lon="2.56022">
        <ele>114.53</ele>
      </trkpt>
      <trkpt lat="48.36882" lon="2.56033">
        <ele>112.61</ele>
      </trkpt>
      <trkpt lat="48.36896" lon="2.56046">
        <ele>110.69</ele>
      </trkpt>
      <trkpt lat="48.36916" lon="2.5607">
        <ele>112.13</ele>
      </trkpt>
      <trkpt lat="48.36932" lon="2.56085">
        <ele>109.25</ele>
      </trkpt>
      <trkpt lat="48.36956" lon="2.56091">
        <ele>106.84</ele>
      </trkpt>
      <trkpt lat="48.36972" lon="2.56096">
        <ele>107.32</ele>
      </trkpt>
      <trkpt lat="48.36993" lon="2.56118">
        <ele>110.21</ele>
      </trkpt>
      <trkpt lat="48.37004" lon="2.56135">
        <ele>111.65</ele>
      </trkpt>
      <trkpt lat="48.37013" lon="2.56136">
        <ele>109.73</ele>
      </trkpt>
      <trkpt lat="48.37013" lon="2.56136">
        <ele>112.13</ele>
      </trkpt>
      <trkpt lat="48.37017" lon="2.56139">
        <ele>113.57</ele>
      </trkpt>
      <trkpt lat="48.37016" lon="2.56138">
        <ele>113.09</ele>
      </trkpt>
      <trkpt lat="48.37016" lon="2.56138">
        <ele>118.38</ele>
      </trkpt>
      <trkpt lat="48.37017" lon="2.56136">
        <ele>118.38</ele>
      </trkpt>
      <trkpt lat="48.37017" lon="2.56137">
        <ele>118.86</ele>
      </trkpt>
      <trkpt lat="48.37015" lon="2.56147">
        <ele>121.7</ele>
      </trkpt>
      <trkpt lat="48.37015" lon="2.56147">
        <ele>121.7</ele>
      </trkpt>
    </trkseg>
  </trk>
</gpx>